Time;durP1;ratioP1;P1;durP2;ratioP2;P2;SDS_P1;SDS_P2;PMS_P1;PMS_P2;Temp;Humidity;BMP_temperature;BMP_pressure;BME280_temperature;BME280_humidity;BME280_pressure;Samples;Min_cycle;Max_cycle;Signal;HPM_P1;HPM_P2
2022/12/30 00:00:44;;;;;;;10.15;2.42;;;;;;;5.25;100.00;100853.56;5025806;28;20299;-66
2022/12/30 00:03:10;;;;;;;7.85;2.35;;;;;;;5.22;100.00;100861.13;5024684;28;20035;-66
2022/12/30 00:05:35;;;;;;;11.70;2.42;;;;;;;5.22;100.00;100862.81;5025999;28;20033;-66
2022/12/30 00:08:00;;;;;;;7.32;2.30;;;;;;;5.20;100.00;100869.56;5024746;28;20030;-66
2022/12/30 00:10:26;;;;;;;12.60;2.65;;;;;;;5.18;100.00;100868.59;5026561;28;20033;-66
2022/12/30 00:34:55;;;;;;;7.77;2.13;;;;;;;5.01;100.00;100890.00;5019895;28;20060;-66
2022/12/30 00:37:20;;;;;;;14.27;3.08;;;;;;;5.01;100.00;100897.69;5030093;28;20026;-66
2022/12/30 00:39:46;;;;;;;9.95;2.10;;;;;;;5.00;100.00;100901.03;5029500;28;20091;-66
2022/12/30 00:44:55;;;;;;;17.23;3.40;;;;;;;4.96;100.00;100885.38;5040043;28;20044;-66
2022/12/30 00:47:21;;;;;;;14.20;2.47;;;;;;;4.93;100.00;100891.22;5030584;28;20474;-66
2022/12/30 00:57:57;;;;;;;15.05;2.75;;;;;;;4.88;100.00;100877.25;5014079;28;20099;-66
2022/12/30 01:00:22;;;;;;;9.53;2.30;;;;;;;4.87;100.00;100878.06;5019392;28;20481;-63
2022/12/30 01:02:48;;;;;;;13.98;2.40;;;;;;;4.85;100.00;100884.78;5029573;28;20037;-66
2022/12/30 01:05:13;;;;;;;15.40;3.13;;;;;;;4.82;100.00;100889.75;5029863;28;20026;-64
2022/12/30 01:07:38;;;;;;;10.07;2.20;;;;;;;4.80;100.00;100890.53;5028619;28;20026;-65
2022/12/30 01:10:04;;;;;;;10.95;2.47;;;;;;;4.79;100.00;100901.63;5029628;28;20025;-65
2022/12/30 01:12:29;;;;;;;7.20;1.98;;;;;;;4.77;100.00;100890.38;5027240;28;20053;-65
2022/12/30 01:14:55;;;;;;;11.77;2.53;;;;;;;4.76;100.00;100893.75;5029128;28;20381;-65
2022/12/30 01:17:28;;;;;;;12.60;2.45;;;;;;;4.76;100.00;100892.84;5028685;28;20025;-65
2022/12/30 01:19:53;;;;;;;13.77;2.60;;;;;;;4.74;100.00;100900.47;5029463;28;20025;-65
2022/12/30 01:22:19;;;;;;;13.20;2.83;;;;;;;4.74;100.00;100895.34;5029313;28;20079;-65
2022/12/30 01:24:44;;;;;;;15.52;2.83;;;;;;;4.74;100.00;100887.63;5019159;28;20033;-65
2022/12/30 01:27:09;;;;;;;10.68;2.40;;;;;;;4.75;100.00;100896.25;5012982;28;20026;-65
2022/12/30 01:29:37;;;;;;;13.95;2.55;;;;;;;4.74;100.00;100903.03;5029357;28;20367;-65
2022/12/30 01:32:08;;;;;;;12.23;3.10;;;;;;;4.75;100.00;100897.09;5022645;28;20434;-65
2022/12/30 01:34:34;;;;;;;16.13;3.13;;;;;;;4.76;100.00;100903.13;5016743;28;20032;-65
2022/12/30 01:37:00;;;;;;;10.48;2.47;;;;;;;4.76;100.00;100906.59;5024617;28;20104;-66
2022/12/30 01:39:26;;;;;;;8.53;2.77;;;;;;;4.76;100.00;100915.97;5025549;28;20038;-66
2022/12/30 01:41:55;;;;;;;15.38;2.42;;;;;;;4.76;100.00;100910.84;5021998;28;20076;-66
2022/12/30 01:44:48;;;;;;;11.70;2.57;;;;;;;4.74;100.00;100925.25;5034231;28;20507;-66
2022/12/30 01:47:32;;;;;;;10.93;2.45;;;;;;;4.72;100.00;100925.19;5023801;28;20032;-66
2022/12/30 01:50:09;;;;;;;9.68;2.53;;;;;;;4.71;100.00;100928.56;5021964;28;20029;-66
2022/12/30 01:52:37;;;;;;;11.43;2.60;;;;;;;4.73;100.00;100929.50;5025718;28;20489;-66
2022/12/30 01:55:09;;;;;;;13.73;3.20;;;;;;;4.75;100.00;100927.91;5023029;28;20095;-66
2022/12/30 01:57:38;;;;;;;11.50;2.17;;;;;;;4.74;100.00;100938.09;5029185;28;20025;-66
2022/12/30 02:00:04;;;;;;;7.93;2.60;;;;;;;4.72;100.00;100926.84;5010102;28;20670;-66
2022/12/30 02:02:30;;;;;;;8.70;2.07;;;;;;;4.72;100.00;100934.56;5009281;28;20038;-66
2022/12/30 02:04:56;;;;;;;8.93;2.53;;;;;;;4.70;100.00;100937.03;5009238;28;20030;-66
2022/12/30 02:07:28;;;;;;;14.17;2.53;;;;;;;4.68;100.00;100936.06;5009365;28;20038;-65
2022/12/30 02:09:56;;;;;;;9.87;3.00;;;;;;;4.65;100.00;100929.09;5016149;28;20056;-65
2022/12/30 02:12:22;;;;;;;10.32;3.10;;;;;;;4.64;100.00;100918.72;5028268;28;20087;-65
2022/12/30 02:14:48;;;;;;;11.87;2.57;;;;;;;4.62;100.00;100915.19;5028400;28;20464;-65
2022/12/30 02:17:31;;;;;;;10.35;2.65;;;;;;;4.61;100.00;100921.09;5013859;28;20057;-65
2022/12/30 02:20:38;;;;;;;10.80;2.27;;;;;;;4.60;100.00;100909.06;5019263;28;20069;-66
2022/12/30 02:23:22;;;;;;;13.88;3.47;;;;;;;4.56;100.00;100901.19;5014065;28;20026;-65
2022/12/30 02:25:56;;;;;;;12.03;2.50;;;;;;;4.53;100.00;100911.28;5011763;28;20108;-66
2022/12/30 02:28:43;;;;;;;7.75;2.53;;;;;;;4.49;100.00;100914.47;5017452;28;20413;-65
2022/12/30 02:31:24;;;;;;;9.13;2.23;;;;;;;4.46;100.00;100913.41;5009580;28;20036;-65
2022/12/30 02:34:07;;;;;;;14.90;3.53;;;;;;;4.43;100.00;100911.53;5020767;28;20030;-65
2022/12/30 02:36:43;;;;;;;8.13;2.17;;;;;;;4.44;100.00;100910.75;5020817;28;20026;-65
2022/12/30 02:39:47;;;;;;;6.53;2.13;;;;;;;4.42;100.00;100907.22;5008634;28;20025;-65
2022/12/30 02:45:14;;;;;;;8.53;2.23;;;;;;;4.32;100.00;100898.97;5033153;28;20105;-65
2022/12/30 02:47:44;;;;;;;11.30;2.10;;;;;;;4.31;100.00;100893.75;5020325;28;20033;-66
2022/12/30 02:53:04;;;;;;;8.97;2.10;;;;;;;4.28;100.00;100880.75;5027702;28;20533;-65
2022/12/30 02:55:29;;;;;;;7.27;2.40;;;;;;;4.27;100.00;100879.84;5027276;28;20037;-66
2022/12/30 02:57:54;;;;;;;9.90;2.50;;;;;;;4.25;100.00;100875.41;5014503;28;20378;-65
2022/12/30 03:06:18;;;;;;;10.07;1.83;;;;;;;4.14;100.00;100855.16;5008225;28;20087;-65
2022/12/30 03:09:21;;;;;;;21.30;2.90;;;;;;;4.12;100.00;100861.00;5007982;28;20429;-65
2022/12/30 03:11:55;;;;;;;14.73;3.60;;;;;;;4.08;100.00;100859.94;5018325;28;20053;-65
2022/12/30 03:14:45;;;;;;;10.13;2.10;;;;;;;4.07;100.00;100859.06;5027065;28;20021;-65
2022/12/30 03:17:19;;;;;;;15.80;2.77;;;;;;;4.05;100.00;100860.63;5010781;28;20371;-65
2022/12/30 03:19:50;;;;;;;13.30;2.40;;;;;;;4.05;100.00;100870.00;5008150;28;20479;-65
2022/12/30 03:27:53;;;;;;;9.57;2.80;;;;;;;3.99;100.00;100850.03;5012295;28;20114;-65
2022/12/30 03:30:19;;;;;;;11.97;2.87;;;;;;;3.96;100.00;100860.09;5023917;28;20038;-65
2022/12/30 03:32:45;;;;;;;11.23;2.30;;;;;;;3.93;100.00;100859.91;5007746;28;20026;-65
2022/12/30 03:35:10;;;;;;;17.40;2.80;;;;;;;3.89;100.00;100860.50;5009037;28;20462;-65
2022/12/30 03:37:41;;;;;;;11.13;2.30;;;;;;;3.86;100.00;100852.66;5017389;28;20033;-65
2022/12/30 03:40:31;;;;;;;14.52;2.85;;;;;;;3.83;100.00;100854.22;5023744;28;20063;-65
2022/12/30 03:42:57;;;;;;;15.63;2.17;;;;;;;3.79;100.00;100842.03;5015600;28;20033;-65
2022/12/30 03:45:23;;;;;;;8.37;2.37;;;;;;;3.78;100.00;100847.09;5035593;28;20029;-65
2022/12/30 03:47:48;;;;;;;12.60;2.43;;;;;;;3.76;100.00;100854.66;5026419;28;20507;-65
2022/12/30 03:50:13;;;;;;;10.83;2.17;;;;;;;3.75;100.00;100859.69;5019810;28;20022;-65
2022/12/30 03:52:39;;;;;;;12.77;3.00;;;;;;;3.75;100.00;100864.81;5007573;28;20109;-65
2022/12/30 03:55:05;;;;;;;11.50;2.83;;;;;;;3.70;100.00;100862.88;5007742;28;20160;-65
2022/12/30 03:57:30;;;;;;;12.03;2.97;;;;;;;3.70;100.00;100869.69;5007373;28;20050;-65
2022/12/30 03:59:56;;;;;;;9.77;2.07;;;;;;;3.68;100.00;100861.00;5009084;28;20099;-65
2022/12/30 04:02:21;;;;;;;9.70;2.60;;;;;;;3.66;100.00;100865.16;5012056;28;20542;-65
2022/12/30 04:04:46;;;;;;;13.40;3.10;;;;;;;3.64;100.00;100865.06;5024900;28;20029;-65
2022/12/30 04:07:12;;;;;;;9.80;2.77;;;;;;;3.64;100.00;100867.63;5012135;28;20030;-65
2022/12/30 04:09:37;;;;;;;6.30;2.10;;;;;;;3.63;100.00;100863.31;5017236;28;20032;-65
2022/12/30 04:12:04;;;;;;;11.50;3.13;;;;;;;3.62;100.00;100856.38;5017784;28;20044;-65
2022/12/30 04:14:29;;;;;;;9.27;2.40;;;;;;;3.62;100.00;100869.19;5012318;28;20030;-65
2022/12/30 04:16:54;;;;;;;11.63;2.60;;;;;;;3.63;100.00;100864.97;5012253;28;20097;-65
2022/12/30 04:19:20;;;;;;;15.87;2.50;;;;;;;3.60;100.00;100869.13;5010885;28;20556;-65
2022/12/30 04:21:45;;;;;;;10.63;2.97;;;;;;;3.60;100.00;100869.13;5011500;28;20084;-65
2022/12/30 04:24:10;;;;;;;11.47;2.87;;;;;;;3.59;100.00;100879.28;5011270;28;20355;-65
2022/12/30 04:26:36;;;;;;;8.83;2.50;;;;;;;3.58;100.00;100883.50;5011194;28;20111;-65
2022/12/30 04:29:01;;;;;;;14.77;4.20;;;;;;;3.57;100.00;100875.72;5025065;28;20025;-65
2022/12/30 04:31:26;;;;;;;14.37;3.13;;;;;;;3.56;100.00;100874.84;5018589;28;20033;-65
2022/12/30 04:33:52;;;;;;;10.00;2.63;;;;;;;3.54;100.00;100871.31;5010275;28;20022;-65
2022/12/30 04:36:19;;;;;;;12.90;2.60;;;;;;;3.54;100.00;100868.75;5011276;28;20022;-65
2022/12/30 04:38:45;;;;;;;13.90;3.43;;;;;;;3.54;100.00;100870.44;5011341;28;20080;-65
2022/12/30 04:41:11;;;;;;;12.80;2.90;;;;;;;3.54;100.00;100868.75;5010897;28;20037;-64
2022/12/30 04:43:36;;;;;;;12.47;3.50;;;;;;;3.53;100.00;100866.97;5027310;28;20037;-65
2022/12/30 04:46:01;;;;;;;14.07;2.57;;;;;;;3.53;100.00;100869.53;5036231;28;20027;-64
2022/12/30 04:48:27;;;;;;;12.17;3.87;;;;;;;3.53;100.00;100863.50;5011298;28;20507;-65
2022/12/30 04:50:52;;;;;;;12.10;2.37;;;;;;;3.54;100.00;100871.31;5022891;28;20492;-64
2022/12/30 04:53:17;;;;;;;16.73;3.40;;;;;;;3.53;100.00;100861.84;5010640;28;20261;-64
2022/12/30 04:55:43;;;;;;;13.73;3.40;;;;;;;3.53;100.00;100858.38;5010516;28;20518;-65
2022/12/30 04:58:08;;;;;;;11.47;2.67;;;;;;;3.51;100.00;100865.97;5010468;28;20022;-65
2022/12/30 05:00:33;;;;;;;21.07;3.83;;;;;;;3.51;100.00;100870.25;5010265;28;20458;-64
2022/12/30 05:02:59;;;;;;;12.43;2.60;;;;;;;3.50;100.00;100859.09;5010453;28;20099;-64
2022/12/30 05:05:25;;;;;;;17.17;2.80;;;;;;;3.50;100.00;100853.97;5011048;28;20025;-64
2022/12/30 05:07:50;;;;;;;13.60;3.20;;;;;;;3.49;100.00;100862.44;5010383;28;20026;-64
2022/12/30 05:10:16;;;;;;;8.23;2.83;;;;;;;3.46;100.00;100846.88;5010596;28;20050;-65
2022/12/30 05:12:41;;;;;;;14.13;3.10;;;;;;;3.46;100.00;100852.00;5008976;28;20029;-64
2022/12/30 05:15:07;;;;;;;11.70;3.20;;;;;;;3.45;100.00;100851.09;5010178;28;20030;-65
2022/12/30 05:17:32;;;;;;;13.93;3.33;;;;;;;3.46;100.00;100846.88;5010322;28;20049;-64
2022/12/30 05:19:58;;;;;;;14.43;3.00;;;;;;;3.48;100.00;100847.88;5010035;28;20030;-64
2022/12/30 05:22:23;;;;;;;11.20;3.40;;;;;;;3.46;100.00;100844.31;5010190;28;20532;-64
2022/12/30 05:27:32;;;;;;;11.57;3.43;;;;;;;3.45;100.00;100845.13;5011519;28;20068;-64
2022/12/30 05:29:57;;;;;;;14.70;3.13;;;;;;;3.46;100.00;100849.44;5029392;28;20489;-64
2022/12/30 05:32:22;;;;;;;12.70;2.50;;;;;;;3.42;100.00;100852.63;5021750;28;20137;-64
2022/12/30 05:34:48;;;;;;;11.10;3.60;;;;;;;3.42;100.00;100844.94;5025440;28;20038;-64
2022/12/30 05:37:13;;;;;;;8.40;2.20;;;;;;;3.41;100.00;100844.06;5010561;28;20018;-65
2022/12/30 05:39:39;;;;;;;13.10;3.10;;;;;;;3.40;100.00;100851.66;5027650;28;20037;-65
2022/12/30 05:42:04;;;;;;;16.40;3.78;;;;;;;3.38;100.00;100848.09;5023752;28;20674;-64
2022/12/30 05:44:30;;;;;;;15.43;3.40;;;;;;;3.39;100.00;100849.84;5015991;28;20038;-64
2022/12/30 05:46:56;;;;;;;8.60;2.60;;;;;;;3.38;100.00;100853.22;5009420;28;20572;-65
2022/12/30 05:49:21;;;;;;;10.90;3.97;;;;;;;3.36;100.00;100848.88;5019127;28;20028;-64
2022/12/30 05:51:47;;;;;;;11.97;3.03;;;;;;;3.36;100.00;100850.56;5017061;28;20133;-64
2022/12/30 05:54:12;;;;;;;6.33;2.33;;;;;;;3.37;100.00;100842.06;5009970;28;20030;-64
2022/12/30 05:56:37;;;;;;;8.60;2.57;;;;;;;3.38;100.00;100848.09;5009601;28;20418;-64
2022/12/30 05:59:02;;;;;;;13.63;2.97;;;;;;;3.35;100.00;100844.56;5013314;28;20022;-64
2022/12/30 06:01:28;;;;;;;13.63;2.53;;;;;;;3.34;100.00;100842.78;5028564;28;20111;-64
2022/12/30 06:03:55;;;;;;;10.43;2.77;;;;;;;3.35;100.00;100841.09;5018540;28;20026;-64
2022/12/30 06:06:20;;;;;;;10.57;2.30;;;;;;;3.33;100.00;100848.69;5024601;28;20680;-64
2022/12/30 06:08:45;;;;;;;14.43;4.27;;;;;;;3.32;100.00;100846.94;5024950;28;20021;-65
2022/12/30 06:11:11;;;;;;;14.73;2.70;;;;;;;3.32;100.00;100841.81;5025608;28;20052;-65
2022/12/30 06:13:36;;;;;;;9.97;2.83;;;;;;;3.32;100.00;100838.34;5015930;28;20501;-65
2022/12/30 06:16:01;;;;;;;14.43;3.17;;;;;;;3.31;100.00;100836.59;5022469;28;20033;-65
2022/12/30 06:18:27;;;;;;;12.13;2.63;;;;;;;3.32;100.00;100829.00;5033756;28;20493;-65
2022/12/30 06:20:53;;;;;;;15.67;2.90;;;;;;;3.33;100.00;100823.06;5011967;28;20026;-65
2022/12/30 06:23:19;;;;;;;9.33;2.53;;;;;;;3.33;100.00;100815.38;5010139;28;20060;-65
2022/12/30 06:25:44;;;;;;;14.03;2.90;;;;;;;3.34;100.00;100821.41;5014126;28;20061;-65
2022/12/30 06:28:09;;;;;;;15.47;3.20;;;;;;;3.33;100.00;100817.94;5009776;28;20021;-65
2022/12/30 06:30:34;;;;;;;9.70;2.30;;;;;;;3.34;100.00;100822.31;5013861;28;20040;-65
2022/12/30 06:33:00;;;;;;;13.03;3.37;;;;;;;3.34;100.00;100814.63;5016479;28;20410;-65
2022/12/30 06:35:25;;;;;;;15.90;3.00;;;;;;;3.35;100.00;100808.69;5007680;28;20069;-65
2022/12/30 06:37:50;;;;;;;10.53;2.83;;;;;;;3.37;100.00;100811.34;5010705;28;20516;-65
2022/12/30 06:40:16;;;;;;;12.67;2.67;;;;;;;3.36;100.00;100805.31;5016371;28;20022;-65
2022/12/30 06:42:41;;;;;;;14.23;3.00;;;;;;;3.39;100.00;100808.88;5010301;28;20492;-65
2022/12/30 06:45:08;;;;;;;12.90;3.73;;;;;;;3.38;100.00;100801.97;5008850;28;20033;-65
2022/12/30 06:47:33;;;;;;;10.53;2.77;;;;;;;3.39;100.00;100798.63;5007798;28;20033;-65
2022/12/30 06:49:58;;;;;;;15.30;3.13;;;;;;;3.40;100.00;100795.28;5009184;28;20021;-65
2022/12/30 06:52:24;;;;;;;15.03;3.50;;;;;;;3.40;100.00;100792.72;5018648;28;20397;-65
2022/12/30 06:54:49;;;;;;;13.60;3.20;;;;;;;3.42;100.00;100788.56;5011211;28;20025;-64
2022/12/30 06:57:14;;;;;;;10.33;2.73;;;;;;;3.42;100.00;100774.06;5008156;28;20508;-64
2022/12/30 06:59:40;;;;;;;9.93;2.90;;;;;;;3.41;100.00;100766.28;5009771;28;20018;-64
2022/12/30 07:02:05;;;;;;;8.23;2.40;;;;;;;3.41;100.00;100762.06;5009304;28;20026;-64
2022/12/30 07:04:30;;;;;;;9.40;2.30;;;;;;;3.41;100.00;100753.47;5014121;28;20480;-64
2022/12/30 07:06:56;;;;;;;10.57;3.10;;;;;;;3.42;100.00;100750.16;5012994;28;20037;-64
2022/12/30 07:09:21;;;;;;;9.53;2.97;;;;;;;3.41;100.00;100746.69;5010996;28;20488;-63
2022/12/30 07:11:46;;;;;;;9.40;2.80;;;;;;;3.42;100.00;100737.34;5010992;28;20684;-64
2022/12/30 07:14:12;;;;;;;12.20;2.87;;;;;;;3.43;100.00;100736.53;5019932;28;20029;-64
2022/12/30 07:16:37;;;;;;;17.53;3.37;;;;;;;3.44;100.00;100733.16;5016577;28;20033;-65
2022/12/30 07:19:02;;;;;;;11.77;2.60;;;;;;;3.43;100.00;100727.16;5011109;28;20420;-64
2022/12/30 07:21:28;;;;;;;12.30;2.67;;;;;;;3.44;100.00;100733.16;5012339;28;20083;-64
2022/12/30 07:23:53;;;;;;;12.53;2.87;;;;;;;3.45;100.00;100729.81;5015002;28;20017;-64
2022/12/30 07:26:18;;;;;;;7.30;2.63;;;;;;;3.46;100.00;100735.03;5014272;28;20040;-64
2022/12/30 07:28:44;;;;;;;12.07;2.93;;;;;;;3.45;100.00;100740.06;5012178;28;20026;-65
2022/12/30 07:31:09;;;;;;;8.57;2.80;;;;;;;3.45;100.00;100732.38;5012803;28;20029;-64
2022/12/30 07:33:34;;;;;;;10.27;3.17;;;;;;;3.45;100.00;100725.56;5018239;28;20021;-64
2022/12/30 07:36:00;;;;;;;11.30;2.80;;;;;;;3.45;100.00;100720.44;5007204;28;20036;-65
2022/12/30 07:38:25;;;;;;;11.10;2.80;;;;;;;3.46;100.00;100719.66;5013377;28;20425;-64
2022/12/30 07:40:50;;;;;;;8.50;2.60;;;;;;;3.46;100.00;100703.38;5016979;28;20083;-64
2022/12/30 07:43:15;;;;;;;7.80;2.57;;;;;;;3.47;100.00;100695.78;5007663;28;20426;-64
2022/12/30 07:45:41;;;;;;;11.17;2.67;;;;;;;3.49;100.00;100698.44;5012211;28;20021;-64
2022/12/30 07:48:06;;;;;;;11.13;2.57;;;;;;;3.52;100.00;100693.50;5013923;28;20021;-64
2022/12/30 07:50:31;;;;;;;7.53;2.50;;;;;;;3.54;100.00;100686.81;5009455;28;20049;-64
2022/12/30 07:52:58;;;;;;;8.70;2.80;;;;;;;3.56;100.00;100685.19;5009815;28;21442;-65
2022/12/30 07:55:24;;;;;;;9.90;2.60;;;;;;;3.58;100.00;100675.91;5020626;28;20517;-64
2022/12/30 07:57:49;;;;;;;7.20;2.40;;;;;;;3.60;100.00;100676.91;5020993;28;20023;-65
2022/12/30 08:00:15;;;;;;;9.77;2.30;;;;;;;3.64;100.00;100664.25;5020103;28;20523;-64
2022/12/30 08:02:40;;;;;;;8.57;2.83;;;;;;;3.65;100.00;100659.22;5014749;28;20030;-65
2022/12/30 08:05:06;;;;;;;7.63;2.60;;;;;;;3.67;100.00;100647.38;5011949;28;20024;-64
2022/12/30 08:07:33;;;;;;;9.17;3.17;;;;;;;3.70;100.00;100649.25;5010628;28;20034;-64
2022/12/30 08:09:58;;;;;;;10.13;2.93;;;;;;;3.73;100.00;100644.28;5009454;28;20026;-64
2022/12/30 08:12:23;;;;;;;8.77;2.43;;;;;;;3.74;100.00;100643.50;5015482;28;20036;-65
2022/12/30 08:14:49;;;;;;;9.73;3.50;;;;;;;3.77;100.00;100648.78;5007742;28;20084;-64
2022/12/30 08:17:14;;;;;;;10.23;2.47;;;;;;;3.79;100.00;100636.94;5022290;28;20124;-65
2022/12/30 08:19:39;;;;;;;8.10;2.57;;;;;;;3.83;100.00;100638.88;5018701;28;20108;-65
2022/12/30 08:22:04;;;;;;;10.63;2.47;;;;;;;3.89;100.00;100640.00;5020924;28;20035;-65
2022/12/30 08:24:30;;;;;;;7.10;2.47;;;;;;;3.93;100.00;100630.03;5010506;28;20562;-66
2022/12/30 08:26:55;;;;;;;8.00;2.80;;;;;;;3.99;100.00;100632.06;5008439;28;20038;-66
2022/12/30 08:29:21;;;;;;;7.80;2.13;;;;;;;4.04;100.00;100633.19;5010319;28;20458;-67
2022/12/30 08:31:49;;;;;;;8.63;2.90;;;;;;;4.12;100.00;100632.72;5013285;28;20057;-66
2022/12/30 08:34:19;;;;;;;7.07;2.35;;;;;;;4.18;100.00;100625.34;5009652;28;20026;-66
2022/12/30 08:36:45;;;;;;;6.93;1.88;;;;;;;4.29;100.00;100625.94;5014755;28;20033;-66
2022/12/30 08:39:11;;;;;;;4.28;1.55;;;;;;;4.33;100.00;100625.31;5007295;28;20330;-67
2022/12/30 08:41:39;;;;;;;6.63;2.10;;;;;;;4.39;100.00;100612.81;5014941;28;20033;-66
2022/12/30 08:44:05;;;;;;;8.32;2.20;;;;;;;4.44;100.00;100597.69;5005741;28;20107;-66
2022/12/30 08:46:32;;;;;;;8.43;2.27;;;;;;;4.51;100.00;100604.91;5019434;28;20068;-66
2022/12/30 08:48:58;;;;;;;5.45;1.92;;;;;;;4.56;100.00;100597.44;5012267;28;20045;-66
2022/12/30 08:51:23;;;;;;;7.15;1.63;;;;;;;4.59;100.00;100600.16;5017211;28;20061;-66
2022/12/30 08:53:49;;;;;;;6.22;2.00;;;;;;;4.64;100.00;100592.72;5009229;28;20033;-66
2022/12/30 08:56:17;;;;;;;6.60;1.55;;;;;;;4.68;100.00;100594.63;5019664;28;20022;-66
2022/12/30 08:58:43;;;;;;;3.60;1.63;;;;;;;4.74;100.00;100584.69;5013337;28;20057;-66
2022/12/30 09:01:15;;;;;;;13.27;2.08;;;;;;;4.76;100.00;100575.38;5010977;28;20053;-66
2022/12/30 09:03:42;;;;;;;;;;;;;;;4.86;100.00;100575.81;5012324;28;20889;-66
2022/12/30 09:06:09;;;;;;;6.22;1.70;;;;;;;4.90;100.00;100575.19;5024203;28;20357;-66
2022/12/30 09:08:35;;;;;;;6.05;1.55;;;;;;;4.92;100.00;100568.44;5022429;28;20037;-67
2022/12/30 09:11:06;;;;;;;3.38;1.38;;;;;;;4.97;100.00;100569.56;5022356;28;20048;-67
2022/12/30 09:13:31;;;;;;;5.47;1.27;;;;;;;5.02;100.00;100562.97;5017493;28;20037;-67
2022/12/30 09:15:58;;;;;;;5.47;1.30;;;;;;;5.07;100.00;100560.66;5031436;28;20029;-67
2022/12/30 09:18:23;;;;;;;4.78;1.63;;;;;;;5.12;100.00;100548.91;5021377;28;20024;-67
2022/12/30 09:20:48;;;;;;;6.63;1.38;;;;;;;5.15;100.00;100541.34;5015750;28;20478;-67
2022/12/30 09:23:14;;;;;;;6.78;1.30;;;;;;;5.21;100.00;100543.34;5029988;28;20040;-67
2022/12/30 09:25:39;;;;;;;2.88;0.93;;;;;;;5.26;100.00;100546.13;5020733;28;20025;-66
2022/12/30 09:28:04;;;;;;;4.68;0.95;;;;;;;5.33;100.00;100552.44;5032190;28;20469;-67
2022/12/30 09:30:30;;;;;;;4.47;0.90;;;;;;;5.37;100.00;100551.78;5027359;28;20441;-67
2022/12/30 09:32:55;;;;;;;4.13;1.00;;;;;;;5.45;100.00;100545.31;5030471;28;20026;-67
2022/12/30 09:35:20;;;;;;;3.65;1.20;;;;;;;5.51;100.00;100531.88;5031380;28;20032;-68
2022/12/30 09:37:46;;;;;;;4.47;0.90;;;;;;;5.59;100.00;100537.41;5027109;28;20071;-67
2022/12/30 09:40:18;;;;;;;6.18;0.98;;;;;;;5.62;100.00;100534.97;5024387;28;20556;-67
2022/12/30 09:45:41;;;;;;;4.93;1.08;;;;;;;5.73;100.00;100527.78;5025632;28;20040;-67
2022/12/30 09:48:11;;;;;;;4.63;1.50;;;;;;;5.76;100.00;100521.09;5023097;28;20021;-67
2022/12/30 09:50:42;;;;;;;4.60;1.10;;;;;;;5.80;100.00;100504.09;5035916;28;20120;-67
2022/12/30 09:53:43;;;;;;;8.65;2.35;;;;;;;5.85;100.00;100501.72;5028713;28;20274;-66
2022/12/30 09:56:17;;;;;;;3.47;1.23;;;;;;;5.86;100.00;100508.66;4985782;28;20064;-67
2022/12/30 09:58:44;;;;;;;4.93;1.23;;;;;;;5.88;100.00;100496.75;5032934;28;20042;-67
2022/12/30 10:01:24;;;;;;;6.97;1.92;;;;;;;5.93;100.00;100500.41;5037400;28;20033;-67
2022/12/30 10:03:56;;;;;;;4.43;1.30;;;;;;;5.94;100.00;100486.72;5026584;28;20029;-67
2022/12/30 10:06:56;;;;;;;3.95;1.10;;;;;;;5.97;100.00;100476.56;5028379;28;20025;-67
2022/12/30 10:09:33;;;;;;;4.72;1.65;;;;;;;6.03;100.00;100477.69;4974730;28;20038;-67
2022/12/30 10:12:21;;;;;;;4.93;1.30;;;;;;;6.03;100.00;100475.13;5019438;28;20099;-67
2022/12/30 10:15:01;;;;;;;6.40;1.33;;;;;;;6.04;100.00;100477.75;5028937;28;20100;-67
2022/12/30 10:17:35;;;;;;;5.03;1.17;;;;;;;6.09;100.00;100460.84;5033503;28;20029;-67
2022/12/30 10:20:05;;;;;;;5.10;1.05;;;;;;;6.13;100.00;100456.72;5020398;28;20051;-67
2022/12/30 10:22:44;;;;;;;5.60;1.08;;;;;;;6.13;100.00;100433.56;5014242;28;20044;-65
2022/12/30 10:25:24;;;;;;;6.75;1.10;;;;;;;6.15;100.00;100429.38;5015360;28;20382;-65
2022/12/30 10:27:53;;;;;;;6.22;1.20;;;;;;;6.20;100.00;100414.13;5027089;28;20124;-65
2022/12/30 10:30:22;;;;;;;6.40;1.30;;;;;;;6.22;100.00;100394.50;5027427;28;20066;-66
2022/12/30 10:32:59;;;;;;;6.45;1.27;;;;;;;6.26;100.00;100400.66;5023637;28;20245;-67
2022/12/30 10:35:29;;;;;;;5.28;0.95;;;;;;;6.27;100.00;100386.94;5023235;28;20399;-67
2022/12/30 10:38:04;;;;;;;5.30;1.15;;;;;;;6.30;100.00;100387.06;5012978;28;20068;-66
2022/12/30 10:40:50;;;;;;;3.83;1.58;;;;;;;6.35;100.00;100383.88;5009089;28;20038;-66
2022/12/30 10:43:40;;;;;;;6.30;1.30;;;;;;;6.39;100.00;100372.03;5008777;28;20623;-67
2022/12/30 10:46:24;;;;;;;4.13;0.98;;;;;;;6.43;100.00;100353.31;5015602;28;20136;-68
2022/12/30 10:49:10;;;;;;;5.53;1.00;;;;;;;6.46;100.00;100342.25;5026700;28;20552;-67
2022/12/30 10:51:36;;;;;;;4.78;1.33;;;;;;;6.51;100.00;100345.94;5010540;28;20588;-67
2022/12/30 10:54:02;;;;;;;4.85;1.00;;;;;;;6.55;100.00;100331.50;5016006;28;20021;-67
2022/12/30 10:56:30;;;;;;;3.25;1.13;;;;;;;6.60;100.00;100329.97;5011881;28;20485;-67
2022/12/30 10:58:59;;;;;;;4.38;0.93;;;;;;;6.63;100.00;100322.38;5025069;28;20033;-67
2022/12/30 11:01:32;;;;;;;4.88;1.27;;;;;;;6.64;100.00;100306.09;5011750;28;20098;-67
2022/12/30 11:03:58;;;;;;;4.25;0.95;;;;;;;6.66;100.00;100289.00;5011660;28;20215;-67
2022/12/30 11:06:27;;;;;;;7.30;1.40;;;;;;;6.72;100.00;100289.25;5013280;28;20038;-67
2022/12/30 11:09:14;;;;;;;4.60;1.67;;;;;;;6.75;100.00;100287.59;5017510;28;20393;-67
2022/12/30 11:14:44;;;;;;;6.78;1.40;;;;;;;6.79;100.00;100276.59;5012999;28;20100;-67
2022/12/30 11:17:15;;;;;;;6.68;1.70;;;;;;;6.80;100.00;100261.19;5009708;28;20108;-67
2022/12/30 11:19:41;;;;;;;;;;;;;;;6.83;100.00;100248.47;5014896;28;20068;-68
2022/12/30 11:22:07;;;;;;;5.13;1.00;;;;;;;6.86;100.00;100242.53;5027228;28;20381;-68
2022/12/30 11:24:32;;;;;;;7.75;1.35;;;;;;;6.91;100.00;100242.69;5027057;28;20116;-68
2022/12/30 11:26:58;;;;;;;4.60;1.00;;;;;;;6.92;100.00;100235.06;5024033;28;20517;-68
2022/12/30 11:29:29;;;;;;;5.85;1.40;;;;;;;6.94;100.00;100228.22;5025176;28;20418;-68
2022/12/30 11:31:55;;;;;;;5.57;1.08;;;;;;;6.95;100.00;100209.41;5016303;28;20030;-68
2022/12/30 11:34:27;;;;;;;7.80;1.70;;;;;;;6.98;100.00;100195.72;5008167;28;20026;-68
2022/12/30 11:36:53;;;;;;;6.45;1.20;;;;;;;6.99;100.00;100188.88;5020274;28;20027;-68
2022/12/30 11:39:26;;;;;;;6.15;1.33;;;;;;;7.01;100.00;100174.38;5027417;28;20108;-68
2022/12/30 11:41:57;;;;;;;6.53;1.50;;;;;;;7.03;100.00;100175.31;5027017;28;20032;-67
2022/12/30 11:44:25;;;;;;;4.18;1.55;;;;;;;7.04;100.00;100165.06;5020933;28;20068;-68
2022/12/30 11:47:01;;;;;;;5.43;1.30;;;;;;;7.06;100.00;100165.09;5009077;28;20022;-68
2022/12/30 11:49:49;;;;;;;8.25;1.58;;;;;;;7.08;100.00;100148.00;5009173;28;20438;-68
2022/12/30 11:52:24;;;;;;;8.65;1.27;;;;;;;7.12;100.00;100144.72;5021484;28;20050;-68
2022/12/30 11:54:53;;;;;;;6.05;1.17;;;;;;;7.15;100.00;100134.50;5008738;28;20038;-68
2022/12/30 11:57:31;;;;;;;5.20;1.23;;;;;;;7.19;100.00;100130.34;5009001;28;20018;-68
2022/12/30 12:00:02;;;;;;;6.47;1.20;;;;;;;7.25;100.00;100124.53;5009880;28;20096;-68
2022/12/30 12:02:33;;;;;;;5.30;1.13;;;;;;;7.25;100.00;100104.75;5009190;28;20060;-68
2022/12/30 12:04:59;;;;;;;;;;;;;;;7.27;100.00;100103.13;5010726;28;20488;-67
2022/12/30 12:07:36;;;;;;;5.50;1.00;;;;;;;7.31;100.00;100093.78;5025951;28;20023;-66
2022/12/30 12:10:11;;;;;;;6.63;1.33;;;;;;;7.37;100.00;100080.22;5025570;28;20017;-68
2022/12/30 12:12:43;;;;;;;7.20;0.98;;;;;;;7.37;100.00;100065.66;5019280;28;20486;-67
2022/12/30 12:15:30;;;;;;;6.22;1.38;;;;;;;7.37;100.00;100063.06;5010331;28;20405;-67
2022/12/30 12:18:01;;;;;;;5.35;1.50;;;;;;;7.39;100.00;100061.44;5011722;28;20044;-67
2022/12/30 12:20:41;;;;;;;5.93;1.42;;;;;;;7.42;100.00;100045.16;5016354;28;20026;-66
2022/12/30 12:23:25;;;;;;;5.93;1.17;;;;;;;7.44;100.00;100044.41;5013756;28;20489;-67
2022/12/30 12:26:12;;;;;;;5.85;1.15;;;;;;;7.45;100.00;100048.72;5015109;28;20579;-66
2022/12/30 12:28:41;;;;;;;5.65;1.70;;;;;;;7.49;100.00;100038.50;5023515;28;20028;-67